• Join FlightAware (Why Join?)
  • Login
  • US Flag 
08:17AM EDT


 

Airport Tracker/Info


-or-


 

Live Flight TrackerFlight Track Log ✈ SKW2961 ✈ 04-May-2012 ✈ KPHX - KGJT

Flight Track Log - Related Links

Times and Time Zones

All times are in EDT time to prevent confusion due to time zone crossing. See the SKW2961 flight status page for this flight to view local times or setup timezone preferences in your user account.

Time Position Orientation Groundspeed Altitude Reporting Facility
EDT Latitude Longitude Course Direction KTS MPH feet Rate Location/Type
06:06PM 33.4333 -112.0333 270° West 171 197 1,700  Level Phoenix TRACON
06:07PM 33.4333 -112.1000 270° West 220 253 3,400 1,920 Climbing Phoenix TRACON
06:08PM 33.4333 -112.1833 348° North 265 305 5,600 2,280 Climbing Phoenix TRACON
06:09PM 33.5000 -112.2000 18° North 289 333 7,800 2,280 Climbing Phoenix TRACON
06:10PM 33.5833 -112.1667 North 310 357 10,000 1,860 Climbing Phoenix TRACON
06:11PM 33.6667 -112.1500 19° North 329 379 11,600 1,680 Climbing Phoenix TRACON
06:12PM 33.7794 -112.1028 46° Northeast 349 402 13,900 1,620 Climbing Albuquerque Center
06:13PM 33.8386 -112.0289 49° Northeast 337 388 15,300 1,560 Climbing Albuquerque Center
06:14PM 33.9069 -111.9350 39° Northeast 337 388 17,100 1,560 Climbing Albuquerque Center
06:15PM 33.9828 -111.8614 25° Northeast 350 403 18,500 1,380 Climbing Albuquerque Center
06:16PM 34.0894 -111.8022 26° Northeast 367 422 19,900 1,200 Climbing Albuquerque Center
06:17PM 34.1769 -111.7517 25° Northeast 378 435 20,900 960 Climbing Albuquerque Center
06:18PM 34.2856 -111.6894 24° Northeast 390 449 21,900 960 Climbing Albuquerque Center
06:19PM 34.3875 -111.6344 26° Northeast 390 449 22,900 900 Climbing Albuquerque Center
06:20PM 34.4836 -111.5764 24° Northeast 398 458 23,800 840 Climbing Albuquerque Center
06:21PM 34.5878 -111.5189 26° Northeast 405 466 24,600 780 Climbing Albuquerque Center
06:22PM 34.6964 -111.4536 24° Northeast 416 479 25,400 720 Climbing Albuquerque Center
06:23PM 34.8028 -111.3956 25° Northeast 422 486 26,100 780 Climbing Albuquerque Center
06:24PM 34.9133 -111.3328 24° Northeast 427 491 27,000 840 Climbing Albuquerque Center
06:25PM 35.0239 -111.2722 28° Northeast 427 491 27,800 600 Climbing Albuquerque Center
06:26PM 35.1325 -111.2014 25° Northeast 427 491 28,300 480 Climbing Albuquerque Center
06:27PM 35.2453 -111.1381 26° Northeast 432 497 28,800 300 Climbing Albuquerque Center
06:28PM 35.3728 -111.0625 25° Northeast 438 504 29,000 60 Climbing Albuquerque Center
06:31PM 35.6167 -110.9253 26° Northeast 464 534 29,000  Level Denver Center
06:32PM 35.7214 -110.8625 25° Northeast 454 522 29,000  Level Denver Center
06:33PM 35.8406 -110.7928 27° Northeast 459 528 29,000  Level Denver Center
06:34PM 35.9558 -110.7200 25° Northeast 459 528 29,000  Level Denver Center
06:35PM 36.0750 -110.6522 27° Northeast 459 528 29,000  Level Denver Center
06:36PM 36.1881 -110.5817 25° Northeast 453 521 29,000  Level Denver Center
06:37PM 36.3050 -110.5133 27° Northeast 458 527 29,000  Level Denver Center
06:38PM 36.4308 -110.4353 26° Northeast 458 527 29,000  Level Denver Center
06:39PM 36.5458 -110.3664 26° Northeast 458 527 29,000  Level Denver Center
06:40PM 36.6628 -110.2950 26° Northeast 453 521 29,000  Level Denver Center
06:41PM 36.7756 -110.2258 23° Northeast 453 521 29,000  Level Denver Center
06:42PM 36.9028 -110.1569 27° Northeast 463 533 29,000  Level Denver Center
06:43PM 37.0050 -110.0922 25° Northeast 472 543 29,000  Level Denver Center
06:44PM 37.1219 -110.0225 27° Northeast 465 535 29,000  Level Denver Center
06:45PM 37.2472 -109.9425 26° Northeast 454 522 29,000  Level Denver Center
06:46PM 37.3619 -109.8722 27° Northeast 454 522 29,000  Level Denver Center
06:47PM 37.4639 -109.8067 26° Northeast 454 522 29,000  Level Denver Center
06:48PM 37.5786 -109.7358 26° Northeast 454 522 29,000 -600 Level Denver Center
06:49PM 37.7100 -109.6553 26° Northeast 460 529 27,800 -1,020 Descending Denver Center
06:50PM 37.8289 -109.5817 26° Northeast 470 541 27,000 -420 Descending Denver Center
06:51PM 37.9478 -109.5081 26° Northeast 479 551 27,000  Level Denver Center
06:52PM 38.0664 -109.4339 27° Northeast 466 536 27,000  Level Denver Center
06:53PM 38.1808 -109.3594 26° Northeast 455 524 27,000 -840 Level Denver Center
06:54PM 38.2847 -109.2950 27° Northeast 455 524 25,400 -2,340 Descending Denver Center
06:55PM 38.4097 -109.2125 27° Northeast 460 529 22,400 -2,760 Descending Denver Center
06:56PM 38.5197 -109.1397 25° Northeast 446 513 19,900 -2,220 Descending Denver Center
06:57PM 38.6278 -109.0747 26° Northeast 433 498 18,000 -1,980 Descending Denver Center
06:58PM 38.7208 -109.0172 27° Northeast 421 484 16,000 -1,800 Descending Denver Center
06:59PM 38.8203 -108.9514 28° Northeast 379 436 14,400 -1,380 Descending Denver Center
07:00PM 38.9047 -108.8931 46° Northeast 354 407 13,300 -1,200 Descending Denver Center
07:01PM 38.9606 -108.8175 70° East 329 379 12,100 -1,440 Descending Denver Center
07:02PM 38.9897 -108.7144 74° East 301 346 10,500 -1,620 Descending Denver Center
07:03PM 39.0150 -108.6028 89° East 301 346 8,900 -1,200 Descending Denver Center
07:04PM 39.0164 -108.5175 51° Northeast 267 307 8,100 -1,200 Descending Denver Center
07:05PM 39.0531 -108.4597 350° North 209 241 6,600 -1,200 Descending Denver Center
07:06PM 39.0944 -108.4689 302° West 153 176 5,700 -900 Descending Denver Center
07:07PM 39.1167 -108.5150 302° West 156 180 4,900 -840 Descending Denver Center